Time;durP1;ratioP1;P1;durP2;ratioP2;P2;SDS_P1;SDS_P2;PMS_P1;PMS_P2;Temp;Humidity;BMP_temperature;BMP_pressure;BME280_temperature;BME280_humidity;BME280_pressure;Samples;Min_cycle;Max_cycle;Signal;HPM_P1;HPM_P2
2023/10/22 00:00:23;;;;;;;4.60;1.33;;;12.30;99.90;;;;;;4946012;28;20093;-70
2023/10/22 00:02:48;;;;;;;3.00;0.93;;;12.30;99.90;;;;;;4932827;28;20039;-70
2023/10/22 00:05:14;;;;;;;7.32;1.52;;;12.30;99.90;;;;;;4961071;28;20051;-69
2023/10/22 00:07:39;;;;;;;2.40;0.90;;;12.30;99.90;;;;;;4964270;28;20141;-73
2023/10/22 00:10:05;;;;;;;4.38;1.25;;;12.20;99.90;;;;;;4964796;28;20073;-67
2023/10/22 00:12:31;;;;;;;3.85;1.20;;;12.30;99.90;;;;;;4962217;28;20046;-70
2023/10/22 00:14:56;;;;;;;5.10;1.30;;;12.40;99.90;;;;;;4985544;28;20453;-70
2023/10/22 00:17:22;;;;;;;4.38;0.88;;;12.40;99.90;;;;;;4946997;28;20042;-70
2023/10/22 00:19:48;;;;;;;5.28;1.20;;;12.40;99.90;;;;;;4972955;28;20055;-71
2023/10/22 00:22:14;;;;;;;3.90;0.93;;;12.40;99.90;;;;;;4966748;28;20035;-68
2023/10/22 00:24:41;;;;;;;3.50;1.00;;;12.50;99.90;;;;;;4968154;28;20050;-70
2023/10/22 00:27:07;;;;;;;2.75;0.98;;;12.50;99.90;;;;;;4956435;28;20053;-69
2023/10/22 00:29:32;;;;;;;6.28;0.95;;;12.60;99.90;;;;;;4967691;28;20035;-69
2023/10/22 00:31:58;;;;;;;4.47;1.30;;;12.60;99.90;;;;;;4946057;28;20062;-67
2023/10/22 00:34:23;;;;;;;10.65;1.30;;;12.60;99.90;;;;;;4955985;28;20042;-70
2023/10/22 00:36:49;;;;;;;5.30;1.15;;;12.70;99.90;;;;;;4956956;28;20214;-69
2023/10/22 00:39:15;;;;;;;3.15;1.08;;;12.70;99.90;;;;;;4948215;28;20074;-71
2023/10/22 00:41:41;;;;;;;5.28;1.05;;;12.70;99.90;;;;;;4964596;28;20097;-69
2023/10/22 00:44:06;;;;;;;3.58;0.90;;;12.80;99.90;;;;;;4964956;28;20046;-70
2023/10/22 00:46:32;;;;;;;2.72;0.70;;;12.80;99.90;;;;;;4960405;28;20455;-69
2023/10/22 00:48:58;;;;;;;3.65;0.88;;;12.90;99.90;;;;;;4964240;28;20049;-67
2023/10/22 00:51:24;;;;;;;5.90;1.33;;;12.90;99.90;;;;;;4961436;28;20050;-67
2023/10/22 00:53:51;;;;;;;2.80;0.60;;;12.90;99.90;;;;;;4958824;28;20038;-71
2023/10/22 00:56:17;;;;;;;4.85;0.93;;;12.90;99.90;;;;;;4956689;28;20046;-70
2023/10/22 00:58:43;;;;;;;2.17;0.80;;;13.00;99.90;;;;;;4950496;28;20093;-70
2023/10/22 01:01:12;;;;;;;2.30;0.70;;;13.00;99.90;;;;;;4953620;28;20058;-69
2023/10/22 01:03:38;;;;;;;4.90;0.90;;;13.00;99.90;;;;;;4951042;28;20467;-71
2023/10/22 01:06:05;;;;;;;3.85;0.68;;;13.00;99.90;;;;;;4966476;28;20446;-68
2023/10/22 01:08:36;;;;;;;4.40;1.00;;;13.00;99.90;;;;;;4963815;28;20054;-65
2023/10/22 01:11:09;;;;;;;2.03;0.85;;;13.00;99.90;;;;;;4979091;28;20066;-67
2023/10/22 01:13:35;;;;;;;3.88;1.00;;;13.00;99.90;;;;;;4963865;28;20321;-73
2023/10/22 01:16:01;;;;;;;2.53;0.80;;;13.00;99.90;;;;;;4958020;28;20050;-69
2023/10/22 01:18:27;;;;;;;6.75;1.00;;;13.10;99.90;;;;;;4962222;28;20043;-69
2023/10/22 01:20:53;;;;;;;4.18;0.90;;;13.00;99.90;;;;;;4968067;28;20050;-73
2023/10/22 01:23:19;;;;;;;2.08;0.77;;;13.10;99.90;;;;;;4948901;28;20073;-70
2023/10/22 01:25:44;;;;;;;4.97;0.63;;;13.00;99.90;;;;;;4961803;28;20050;-68
2023/10/22 01:28:10;;;;;;;2.05;0.73;;;13.10;99.90;;;;;;4944690;28;20042;-69
2023/10/22 01:30:35;;;;;;;2.90;0.90;;;13.00;99.90;;;;;;4963554;28;20046;-69
2023/10/22 01:33:01;;;;;;;3.83;1.00;;;13.00;99.90;;;;;;4961634;28;20050;-67
2023/10/22 01:35:27;;;;;;;4.30;1.13;;;13.00;99.90;;;;;;4954741;28;20045;-69
2023/10/22 01:37:52;;;;;;;8.02;1.13;;;13.00;99.90;;;;;;4964560;28;22246;-68
2023/10/22 01:40:18;;;;;;;4.30;1.10;;;13.00;99.90;;;;;;4956325;28;20050;-67
2023/10/22 01:42:45;;;;;;;3.33;0.70;;;13.00;99.90;;;;;;4953869;28;20046;-70
2023/10/22 01:45:11;;;;;;;4.25;0.82;;;13.00;99.90;;;;;;4985060;28;20077;-68
2023/10/22 01:47:37;;;;;;;3.00;0.80;;;13.00;99.90;;;;;;4963275;28;20039;-67
2023/10/22 01:50:04;;;;;;;2.38;0.80;;;12.90;99.90;;;;;;4970880;28;20382;-69
2023/10/22 01:52:30;;;;;;;1.42;0.70;;;13.00;99.90;;;;;;4969094;28;20050;-70
2023/10/22 01:54:56;;;;;;;3.30;0.65;;;12.90;99.90;;;;;;4970997;28;20039;-68
2023/10/22 01:57:23;;;;;;;3.85;0.70;;;12.90;99.90;;;;;;4963318;28;20398;-74
2023/10/22 01:59:49;;;;;;;2.83;0.80;;;12.90;99.90;;;;;;4967910;28;20043;-68
2023/10/22 02:02:15;;;;;;;3.42;1.05;;;12.90;99.90;;;;;;4964308;28;20487;-68
2023/10/22 02:04:41;;;;;;;5.18;1.00;;;12.90;99.90;;;;;;4959123;28;20127;-68
2023/10/22 02:07:06;;;;;;;2.20;0.75;;;12.80;99.90;;;;;;4966184;28;20051;-68
2023/10/22 02:09:32;;;;;;;4.93;1.10;;;12.70;99.90;;;;;;4967326;28;20050;-69
2023/10/22 02:11:58;;;;;;;4.75;0.75;;;12.60;99.90;;;;;;4967769;28;20463;-69
2023/10/22 02:14:24;;;;;;;1.92;0.80;;;12.40;99.90;;;;;;4952237;28;20080;-72
2023/10/22 02:16:49;;;;;;;5.63;1.05;;;12.30;99.90;;;;;;4967087;28;20550;-69
2023/10/22 02:19:15;;;;;;;2.20;0.85;;;12.20;99.90;;;;;;4968567;28;20050;-69
2023/10/22 02:21:41;;;;;;;3.33;0.98;;;12.10;99.90;;;;;;4977450;28;20057;-76
2023/10/22 02:24:07;;;;;;;3.17;0.80;;;12.00;99.90;;;;;;4979736;28;20046;-70
2023/10/22 02:26:33;;;;;;;3.55;0.90;;;12.00;99.90;;;;;;4978037;28;20055;-75
2023/10/22 02:28:58;;;;;;;5.28;1.10;;;11.90;99.90;;;;;;4969975;28;20415;-70
2023/10/22 02:31:24;;;;;;;4.20;0.82;;;11.90;99.90;;;;;;4968534;28;20041;-69
2023/10/22 02:33:59;;;;;;;3.90;0.80;;;11.90;99.90;;;;;;4967797;28;20050;-70
2023/10/22 02:36:25;;;;;;;5.07;0.80;;;11.90;99.90;;;;;;4976970;28;20052;-69
2023/10/22 02:38:50;;;;;;;1.83;0.80;;;12.00;99.90;;;;;;4968503;28;20038;-69
2023/10/22 02:41:16;;;;;;;4.13;0.95;;;12.00;99.90;;;;;;4991658;28;20053;-74
2023/10/22 02:43:42;;;;;;;8.73;3.25;;;12.00;99.90;;;;;;4975070;28;20117;-74
2023/10/22 02:46:07;;;;;;;5.55;0.98;;;12.00;99.90;;;;;;4956081;28;20039;-70
2023/10/22 02:48:33;;;;;;;4.47;0.80;;;12.10;99.90;;;;;;4972728;28;20046;-74
2023/10/22 02:51:03;;;;;;;3.60;0.70;;;12.10;99.90;;;;;;4962516;28;20106;-73
2023/10/22 02:53:28;;;;;;;3.65;1.02;;;12.10;99.90;;;;;;4971354;28;20506;-68
2023/10/22 02:56:03;;;;;;;0.98;0.60;;;12.10;99.90;;;;;;4964444;28;20515;-68
2023/10/22 02:58:29;;;;;;;3.45;0.80;;;12.00;99.90;;;;;;4961205;28;20429;-68
2023/10/22 03:00:56;;;;;;;2.90;0.80;;;11.90;99.90;;;;;;4959805;28;20050;-72
2023/10/22 03:03:22;;;;;;;2.72;0.60;;;11.80;99.90;;;;;;4965667;28;20145;-68
2023/10/22 03:05:48;;;;;;;2.72;0.80;;;11.80;99.90;;;;;;4944177;28;20507;-69
2023/10/22 03:08:13;;;;;;;2.45;0.85;;;11.70;99.90;;;;;;4968805;28;20127;-70
2023/10/22 03:10:39;;;;;;;2.58;0.70;;;11.70;99.90;;;;;;4975556;28;20065;-69
2023/10/22 03:13:04;;;;;;;2.67;1.33;;;11.70;99.90;;;;;;4965431;28;20046;-70
2023/10/22 03:15:30;;;;;;;5.82;1.02;;;11.80;99.90;;;;;;4970676;28;20180;-73
2023/10/22 03:17:56;;;;;;;5.45;1.00;;;11.80;99.90;;;;;;4971648;28;20524;-73
2023/10/22 03:20:23;;;;;;;3.95;0.95;;;11.80;99.90;;;;;;4956776;28;20046;-69
2023/10/22 03:22:49;;;;;;;4.97;1.10;;;11.80;99.90;;;;;;4987715;28;20173;-68
2023/10/22 03:25:17;;;;;;;4.35;0.80;;;11.80;99.90;;;;;;4971155;28;20046;-71
2023/10/22 03:27:43;;;;;;;2.58;0.90;;;11.90;99.90;;;;;;4968321;28;20062;-70
2023/10/22 03:30:10;;;;;;;3.00;0.93;;;12.00;99.90;;;;;;4967313;28;20049;-74
2023/10/22 03:32:36;;;;;;;1.70;0.90;;;12.00;99.90;;;;;;4963690;28;20038;-70
2023/10/22 03:35:06;;;;;;;3.45;0.90;;;12.10;99.90;;;;;;4966094;28;20134;-69
2023/10/22 03:37:31;;;;;;;2.72;0.82;;;12.10;99.90;;;;;;4969775;28;20061;-68
2023/10/22 03:39:57;;;;;;;1.05;0.82;;;12.20;99.90;;;;;;4971683;28;20483;-67
2023/10/22 03:42:23;;;;;;;3.45;1.00;;;12.10;99.90;;;;;;4967550;28;20034;-69
2023/10/22 03:44:48;;;;;;;3.35;1.27;;;12.20;99.90;;;;;;4969493;28;20134;-74
2023/10/22 03:47:14;;;;;;;3.20;1.00;;;12.20;99.90;;;;;;4964377;28;20505;-69
2023/10/22 03:49:39;;;;;;;3.70;0.70;;;12.20;99.90;;;;;;4969163;28;20046;-71
2023/10/22 03:52:05;;;;;;;3.35;1.00;;;12.20;99.90;;;;;;4971285;28;20351;-68
2023/10/22 03:54:31;;;;;;;3.60;0.95;;;12.20;99.90;;;;;;4979103;28;20473;-73
2023/10/22 03:56:57;;;;;;;14.93;1.48;;;12.20;99.90;;;;;;4990557;28;20046;-68
2023/10/22 03:59:22;;;;;;;2.28;1.20;;;12.30;99.90;;;;;;4978357;28;20046;-71
2023/10/22 04:01:48;;;;;;;4.38;1.27;;;12.20;99.90;;;;;;4949949;28;20124;-72
2023/10/22 04:04:14;;;;;;;2.08;1.00;;;12.10;99.90;;;;;;4969015;28;20042;-71
2023/10/22 04:06:39;;;;;;;2.75;1.17;;;12.10;99.90;;;;;;4972862;28;20046;-70
2023/10/22 04:09:05;;;;;;;3.65;1.10;;;12.10;99.90;;;;;;4974611;28;20034;-70
2023/10/22 04:11:30;;;;;;;3.80;1.08;;;12.10;99.90;;;;;;4965587;28;20513;-74
2023/10/22 04:13:56;;;;;;;3.42;1.00;;;12.00;99.90;;;;;;4969085;28;20034;-68
2023/10/22 04:16:21;;;;;;;2.75;1.20;;;11.90;99.90;;;;;;4970955;28;20073;-68
2023/10/22 04:18:47;;;;;;;2.05;1.23;;;11.90;99.90;;;;;;4965603;28;20034;-72
2023/10/22 04:21:16;;;;;;;1.55;0.98;;;11.80;99.90;;;;;;4969892;28;20477;-67
2023/10/22 04:23:42;;;;;;;3.20;0.90;;;11.80;99.90;;;;;;4971878;28;20121;-74
2023/10/22 04:26:12;;;;;;;7.30;2.05;;;11.80;99.90;;;;;;4942306;28;20044;-70
2023/10/22 04:28:39;;;;;;;1.98;1.05;;;11.80;99.90;;;;;;4958639;28;20114;-69
2023/10/22 04:31:04;;;;;;;2.78;1.55;;;11.80;99.90;;;;;;4962599;28;20115;-73
2023/10/22 04:33:31;;;;;;;2.10;1.40;;;11.70;99.90;;;;;;4966076;28;20406;-69
2023/10/22 04:35:56;;;;;;;1.70;1.40;;;11.70;99.90;;;;;;4984698;28;20042;-66
2023/10/22 04:38:22;;;;;;;3.70;1.55;;;11.70;99.90;;;;;;4967742;28;20092;-71
2023/10/22 04:40:47;;;;;;;3.30;1.20;;;11.60;99.90;;;;;;4962220;28;20121;-68
2023/10/22 04:43:13;;;;;;;4.30;1.50;;;11.60;99.90;;;;;;4966971;28;20042;-69
2023/10/22 04:45:46;;;;;;;3.83;1.60;;;11.60;99.90;;;;;;4964576;28;20050;-70
2023/10/22 04:48:11;;;;;;;2.58;1.33;;;11.50;99.90;;;;;;4967017;28;20060;-70
2023/10/22 04:50:38;;;;;;;3.60;1.80;;;11.60;99.90;;;;;;4950815;28;20046;-68
2023/10/22 04:53:04;;;;;;;2.40;1.55;;;11.50;99.90;;;;;;4957793;28;20042;-76
2023/10/22 04:55:29;;;;;;;3.00;1.90;;;11.50;99.90;;;;;;4950826;28;20431;-69
2023/10/22 04:57:55;;;;;;;4.25;1.70;;;11.50;99.90;;;;;;4958121;28;20128;-71
2023/10/22 05:00:21;;;;;;;4.30;1.63;;;11.50;99.90;;;;;;4961735;28;20061;-69
2023/10/22 05:02:47;;;;;;;2.85;1.63;;;11.50;99.90;;;;;;4949447;28;20125;-70
2023/10/22 05:05:12;;;;;;;3.58;1.77;;;11.50;99.90;;;;;;4967460;28;20042;-67
2023/10/22 05:07:38;;;;;;;4.93;1.90;;;11.50;99.90;;;;;;4956420;28;20053;-69
2023/10/22 05:10:04;;;;;;;2.53;1.50;;;11.50;99.90;;;;;;4957617;28;20070;-67
2023/10/22 05:12:30;;;;;;;3.05;1.60;;;11.50;99.90;;;;;;4961739;28;20034;-69
2023/10/22 05:14:56;;;;;;;2.40;1.60;;;11.50;99.90;;;;;;4964293;28;20475;-68
2023/10/22 05:17:24;;;;;;;3.85;2.10;;;11.50;99.90;;;;;;4948584;28;20427;-67
2023/10/22 05:19:50;;;;;;;4.97;1.90;;;11.40;99.90;;;;;;4969408;28;20059;-67
2023/10/22 05:22:17;;;;;;;4.45;2.00;;;11.50;99.90;;;;;;4980459;28;20475;-67
2023/10/22 05:24:48;;;;;;;2.70;1.70;;;11.50;99.90;;;;;;4949156;28;20173;-68
2023/10/22 05:27:15;;;;;;;2.58;1.80;;;11.50;99.90;;;;;;4963140;28;20072;-70
2023/10/22 05:29:42;;;;;;;3.67;1.88;;;11.50;99.90;;;;;;4966861;28;20478;-67
2023/10/22 05:32:08;;;;;;;2.70;1.63;;;11.50;99.90;;;;;;4957386;28;20046;-68
2023/10/22 05:34:33;;;;;;;2.50;1.90;;;11.50;99.90;;;;;;4968338;28;20058;-69
2023/10/22 05:36:59;;;;;;;3.67;1.85;;;11.50;99.90;;;;;;4967367;28;20066;-67
2023/10/22 05:39:25;;;;;;;2.30;1.92;;;11.50;99.90;;;;;;4954830;28;20398;-67
2023/10/22 05:41:51;;;;;;;2.63;1.80;;;11.50;99.90;;;;;;4958346;28;20054;-68
2023/10/22 05:44:16;;;;;;;3.13;2.25;;;11.50;99.90;;;;;;4963341;28;20046;-67
2023/10/22 05:46:42;;;;;;;3.28;2.20;;;11.50;99.90;;;;;;4965539;28;20045;-67
2023/10/22 05:49:10;;;;;;;2.40;2.05;;;11.50;99.90;;;;;;4959651;28;20196;-68
2023/10/22 05:51:35;;;;;;;2.50;2.10;;;11.60;99.90;;;;;;4965507;28;20049;-68
2023/10/22 05:54:03;;;;;;;2.92;2.25;;;11.60;99.90;;;;;;4966585;28;20343;-67
2023/10/22 05:56:30;;;;;;;2.92;2.17;;;11.60;99.90;;;;;;4968838;28;20069;-66
2023/10/22 05:58:55;;;;;;;3.00;1.85;;;11.60;99.90;;;;;;4965606;28;20378;-66
2023/10/22 06:01:21;;;;;;;3.88;1.55;;;11.60;99.90;;;;;;4965459;28;20042;-69
2023/10/22 06:03:46;;;;;;;2.05;1.38;;;11.60;99.90;;;;;;4962767;28;20035;-68
2023/10/22 06:06:17;;;;;;;3.70;1.45;;;11.60;99.90;;;;;;4972783;28;20513;-66
2023/10/22 06:08:45;;;;;;;2.17;1.20;;;11.60;99.90;;;;;;4976414;28;20035;-68
2023/10/22 06:11:11;;;;;;;2.45;1.15;;;11.60;99.90;;;;;;4968838;28;20100;-69
2023/10/22 06:13:37;;;;;;;1.02;0.80;;;11.60;99.90;;;;;;4971478;28;20039;-68
2023/10/22 06:16:02;;;;;;;3.72;1.05;;;11.70;99.90;;;;;;4965953;28;20047;-71
2023/10/22 06:18:28;;;;;;;1.05;0.90;;;11.70;99.90;;;;;;4986233;28;20034;-69
2023/10/22 06:20:54;;;;;;;1.58;1.30;;;11.70;99.90;;;;;;4973714;28;20054;-70
2023/10/22 06:23:21;;;;;;;0.93;0.88;;;11.80;99.90;;;;;;4962921;28;20039;-72
2023/10/22 06:25:47;;;;;;;1.20;0.90;;;11.80;99.90;;;;;;4963764;28;20046;-70
2023/10/22 06:28:13;;;;;;;1.77;1.05;;;11.70;99.90;;;;;;4959744;28;20860;-74
2023/10/22 06:30:39;;;;;;;2.88;1.00;;;11.80;99.90;;;;;;4970264;28;20120;-71
2023/10/22 06:33:04;;;;;;;1.45;0.77;;;11.70;99.90;;;;;;4973040;28;20057;-73
2023/10/22 06:35:30;;;;;;;2.53;1.10;;;11.70;99.90;;;;;;4969393;28;20038;-70
2023/10/22 06:37:56;;;;;;;5.57;1.92;;;11.60;99.90;;;;;;4972965;28;20096;-73
2023/10/22 06:40:23;;;;;;;4.90;1.42;;;11.50;99.90;;;;;;4971422;28;20042;-73
2023/10/22 06:42:48;;;;;;;4.68;1.30;;;11.50;99.90;;;;;;4968714;28;20060;-74
2023/10/22 06:45:18;;;;;;;1.85;1.23;;;11.40;99.90;;;;;;4974542;28;20042;-78
2023/10/22 06:47:43;;;;;;;2.90;1.20;;;11.40;99.90;;;;;;4988504;28;20113;-77
2023/10/22 06:50:13;;;;;;;4.47;1.38;;;11.40;99.90;;;;;;4972601;28;20200;-77
2023/10/22 06:52:42;;;;;;;5.07;1.60;;;11.40;99.90;;;;;;4968752;28;20050;-74
2023/10/22 06:55:08;;;;;;;5.07;1.60;;;11.40;99.90;;;;;;4978089;28;20049;-77
2023/10/22 06:57:34;;;;;;;3.95;1.50;;;11.40;99.90;;;;;;4957081;28;20093;-75
2023/10/22 06:59:59;;;;;;;5.55;1.55;;;11.40;99.90;;;;;;4990123;28;20467;-77
2023/10/22 07:02:26;;;;;;;6.75;1.33;;;11.40;99.90;;;;;;4967423;28;20040;-73
2023/10/22 07:04:55;;;;;;;2.15;1.48;;;11.30;99.90;;;;;;4973986;28;20046;-77
2023/10/22 07:07:22;;;;;;;2.63;1.45;;;11.30;99.90;;;;;;4956557;28;20038;-78
2023/10/22 07:09:47;;;;;;;5.43;1.60;;;11.30;99.90;;;;;;4973071;28;20080;-79
2023/10/22 07:12:14;;;;;;;6.32;2.85;;;11.30;99.90;;;;;;4969642;28;20038;-76
2023/10/22 07:14:40;;;;;;;5.72;2.30;;;11.30;99.90;;;;;;4971673;28;20085;-74
2023/10/22 07:17:05;;;;;;;7.28;2.80;;;11.30;99.90;;;;;;4968427;28;20038;-77
2023/10/22 07:19:31;;;;;;;3.25;2.40;;;11.30;99.90;;;;;;4973101;28;20371;-77
2023/10/22 07:21:57;;;;;;;3.80;2.35;;;11.20;99.90;;;;;;4999678;28;20119;-76
2023/10/22 07:24:23;;;;;;;6.38;2.40;;;11.20;99.90;;;;;;4972333;28;20053;-77
2023/10/22 07:26:48;;;;;;;6.90;5.25;;;11.10;99.90;;;;;;4955863;28;20045;-77
2023/10/22 07:29:14;;;;;;;4.68;3.08;;;11.10;99.90;;;;;;4973820;28;20042;-73
2023/10/22 07:31:40;;;;;;;6.07;3.40;;;11.10;99.90;;;;;;4969464;28;20501;-74
2023/10/22 07:34:06;;;;;;;7.10;3.38;;;11.10;99.90;;;;;;4987793;28;20431;-78
2023/10/22 07:36:32;;;;;;;8.27;4.25;;;11.10;99.90;;;;;;4974473;28;20038;-75
2023/10/22 07:38:57;;;;;;;8.25;4.32;;;11.10;99.90;;;;;;4962167;28;20486;-75
2023/10/22 07:41:24;;;;;;;9.77;5.30;;;11.10;99.90;;;;;;4983756;28;20074;-74
2023/10/22 07:43:50;;;;;;;10.25;5.20;;;11.10;99.90;;;;;;4975553;28;20058;-75
2023/10/22 07:46:16;;;;;;;13.50;5.75;;;11.00;99.90;;;;;;4972478;28;20085;-74
2023/10/22 07:48:45;;;;;;;11.02;6.97;;;11.10;99.90;;;;;;4972148;28;20084;-75
2023/10/22 07:51:12;;;;;;;12.88;7.72;;;11.10;99.90;;;;;;4980960;28;20442;-76
2023/10/22 07:53:38;;;;;;;15.73;7.03;;;11.10;99.90;;;;;;4981440;28;20053;-74
2023/10/22 07:56:05;;;;;;;13.43;5.85;;;11.10;99.90;;;;;;4972219;28;20113;-75
2023/10/22 07:58:31;;;;;;;10.45;5.25;;;11.20;99.90;;;;;;4990952;28;20034;-75
2023/10/22 08:00:57;;;;;;;11.05;4.50;;;11.20;99.90;;;;;;4995325;28;20034;-74
2023/10/22 08:03:22;;;;;;;8.10;4.43;;;11.20;99.90;;;;;;4971543;28;20035;-74
2023/10/22 08:05:48;;;;;;;9.27;4.30;;;11.30;99.90;;;;;;4973070;28;20124;-76
2023/10/22 08:08:13;;;;;;;8.43;4.07;;;11.20;99.90;;;;;;4988096;28;20046;-74
2023/10/22 08:10:39;;;;;;;12.00;4.93;;;11.20;99.90;;;;;;4989763;28;20052;-74
2023/10/22 08:13:05;;;;;;;11.48;4.78;;;11.20;99.90;;;;;;4958150;28;20042;-72
2023/10/22 08:15:30;;;;;;;7.68;4.47;;;11.30;99.90;;;;;;4970717;28;20100;-73
2023/10/22 08:17:56;;;;;;;11.60;5.40;;;11.30;99.90;;;;;;4974281;28;20133;-72
2023/10/22 08:20:21;;;;;;;9.43;5.80;;;11.30;99.90;;;;;;4976731;28;20085;-72
2023/10/22 08:22:47;;;;;;;12.18;5.28;;;11.40;99.90;;;;;;4973002;28;20141;-73
2023/10/22 08:25:12;;;;;;;12.07;4.82;;;11.40;99.90;;;;;;4975745;28;20375;-72
2023/10/22 08:27:38;;;;;;;10.43;4.88;;;11.40;99.90;;;;;;4956788;28;20058;-72
2023/10/22 08:30:04;;;;;;;11.57;4.80;;;11.40;99.90;;;;;;4975202;28;20061;-72
2023/10/22 08:32:33;;;;;;;10.10;4.50;;;11.40;99.90;;;;;;4970171;28;20109;-72
2023/10/22 08:34:59;;;;;;;9.65;4.20;;;11.50;99.90;;;;;;4983078;28;20035;-74
2023/10/22 08:37:24;;;;;;;9.38;3.85;;;11.50;99.90;;;;;;4972841;28;20125;-71
2023/10/22 08:39:50;;;;;;;6.60;4.40;;;11.50;99.90;;;;;;4976260;28;20474;-73
2023/10/22 08:42:22;;;;;;;5.35;3.50;;;11.50;99.90;;;;;;4973202;28;20120;-70
2023/10/22 08:44:49;;;;;;;9.07;3.90;;;11.50;99.90;;;;;;4972941;28;20053;-71
2023/10/22 08:47:15;;;;;;;10.30;4.18;;;11.60;99.90;;;;;;4975954;28;20062;-72
2023/10/22 08:49:41;;;;;;;9.52;3.88;;;11.60;99.90;;;;;;4973015;28;20097;-71
2023/10/22 08:52:10;;;;;;;6.93;3.55;;;11.70;99.90;;;;;;4974426;28;20455;-71
2023/10/22 08:54:38;;;;;;;9.30;3.20;;;11.70;99.90;;;;;;4988343;28;20046;-71
2023/10/22 08:57:04;;;;;;;7.53;3.50;;;11.70;99.90;;;;;;4966783;28;20039;-71
2023/10/22 08:59:34;;;;;;;8.48;3.35;;;11.80;99.90;;;;;;4970284;28;20034;-72
2023/10/22 09:02:01;;;;;;;6.82;2.97;;;11.80;99.90;;;;;;4968030;28;20038;-70
2023/10/22 09:04:31;;;;;;;11.45;3.13;;;11.80;99.90;;;;;;4971727;28;20056;-71
2023/10/22 09:06:57;;;;;;;6.85;3.17;;;11.90;99.90;;;;;;4984366;28;20235;-71
2023/10/22 09:09:32;;;;;;;10.35;3.72;;;12.10;99.90;;;;;;4971929;28;20264;-70
2023/10/22 09:11:58;;;;;;;8.00;3.17;;;12.10;99.90;;;;;;4969598;28;20038;-69
2023/10/22 09:14:24;;;;;;;5.85;3.20;;;12.30;99.90;;;;;;4984042;28;20105;-69
2023/10/22 09:16:50;;;;;;;4.63;2.55;;;12.30;99.90;;;;;;4974759;28;20172;-70
2023/10/22 09:19:41;;;;;;;8.85;2.50;;;12.30;99.90;;;;;;4970788;28;20121;-71
2023/10/22 09:22:25;;;;;;;5.55;2.33;;;12.50;99.90;;;;;;4956196;28;20050;-69
2023/10/22 09:24:53;;;;;;;6.30;2.60;;;12.50;99.90;;;;;;4963591;28;20038;-69
2023/10/22 09:27:26;;;;;;;3.25;2.20;;;12.50;99.90;;;;;;4971513;28;20073;-70
2023/10/22 09:29:53;;;;;;;7.57;2.40;;;12.60;99.90;;;;;;4958277;28;20097;-71
2023/10/22 09:32:19;;;;;;;14.27;7.10;;;12.40;99.90;;;;;;4966869;28;20426;-69
2023/10/22 09:34:45;;;;;;;15.82;6.55;;;12.50;99.90;;;;;;4971952;28;20124;-70
2023/10/22 09:37:10;;;;;;;13.68;6.20;;;12.40;99.90;;;;;;4971210;28;20042;-69
2023/10/22 09:39:43;;;;;;;9.48;2.40;;;12.40;99.90;;;;;;4973231;28;20431;-70
2023/10/22 09:42:09;;;;;;;5.93;2.70;;;12.50;99.90;;;;;;4969002;28;20459;-68
2023/10/22 09:44:40;;;;;;;8.52;4.45;;;12.40;99.90;;;;;;4955239;28;20046;-69
2023/10/22 09:47:07;;;;;;;9.80;7.07;;;12.50;99.90;;;;;;4982984;28;20065;-68
2023/10/22 09:49:33;;;;;;;3.45;2.47;;;12.50;99.90;;;;;;4968207;28;20393;-69
2023/10/22 09:52:00;;;;;;;5.22;1.90;;;12.50;99.90;;;;;;4971791;28;20478;-68
2023/10/22 09:54:37;;;;;;;5.20;1.83;;;12.60;99.90;;;;;;4960820;28;20496;-68
2023/10/22 09:57:15;;;;;;;8.48;1.90;;;12.50;99.90;;;;;;4970725;28;20126;-67
2023/10/22 09:59:42;;;;;;;4.85;1.90;;;12.50;99.90;;;;;;4974663;28;20096;-67
2023/10/22 10:02:13;;;;;;;2.38;1.10;;;12.50;99.90;;;;;;4986452;28;20041;-68
2023/10/22 10:04:40;;;;;;;4.93;1.25;;;12.70;99.90;;;;;;4967380;28;20490;-68
2023/10/22 10:07:06;;;;;;;3.28;1.30;;;12.80;99.90;;;;;;4975353;28;20490;-67
2023/10/22 10:09:34;;;;;;;3.25;1.25;;;12.70;99.90;;;;;;4975187;28;20120;-70
2023/10/22 10:12:03;;;;;;;3.60;1.30;;;12.60;99.90;;;;;;4970729;28;20136;-68
2023/10/22 10:14:48;;;;;;;5.03;1.40;;;12.60;99.90;;;;;;4981747;28;20054;-67
2023/10/22 10:17:15;;;;;;;6.07;1.75;;;12.60;99.90;;;;;;4953912;28;20038;-66
2023/10/22 10:19:41;;;;;;;2.78;1.20;;;12.60;99.90;;;;;;4976922;28;20501;-69
2023/10/22 10:22:07;;;;;;;1.50;1.00;;;12.50;99.90;;;;;;4972897;28;20041;-67
2023/10/22 10:24:33;;;;;;;4.30;1.35;;;12.60;99.90;;;;;;4972995;28;20053;-68
2023/10/22 10:26:59;;;;;;;4.07;1.95;;;12.60;99.90;;;;;;4975642;28;20061;-69
2023/10/22 10:29:27;;;;;;;5.68;1.45;;;12.50;99.90;;;;;;4981207;28;20042;-66
2023/10/22 10:31:53;;;;;;;4.38;1.52;;;12.50;99.90;;;;;;4972928;28;20042;-68
2023/10/22 10:34:32;;;;;;;5.72;1.55;;;12.70;99.90;;;;;;4972572;28;20085;-67
2023/10/22 10:37:13;;;;;;;4.07;1.50;;;13.00;99.90;;;;;;4983958;28;20046;-67
2023/10/22 10:39:43;;;;;;;4.25;1.38;;;13.20;99.90;;;;;;4981493;28;20040;-67
2023/10/22 10:42:13;;;;;;;3.90;1.10;;;13.20;99.90;;;;;;4977211;28;20044;-66
2023/10/22 10:44:54;;;;;;;3.17;0.98;;;13.30;99.90;;;;;;4984269;28;20355;-67
2023/10/22 10:47:27;;;;;;;4.03;1.10;;;13.20;99.90;;;;;;4986184;28;20178;-67
2023/10/22 10:50:05;;;;;;;3.70;0.85;;;13.10;99.90;;;;;;4976589;28;20785;-66
2023/10/22 10:52:34;;;;;;;4.28;1.20;;;13.00;99.90;;;;;;4973323;28;20042;-67
2023/10/22 10:55:17;;;;;;;1.00;0.60;;;12.90;99.90;;;;;;4979587;28;20046;-66
2023/10/22 10:57:50;;;;;;;3.92;0.82;;;12.90;99.90;;;;;;4973694;28;20038;-67
2023/10/22 11:00:20;;;;;;;2.50;0.70;;;12.80;99.90;;;;;;4982245;28;20057;-67
2023/10/22 11:02:53;;;;;;;3.40;0.98;;;12.70;99.90;;;;;;4959399;28;20129;-66
2023/10/22 11:05:32;;;;;;;8.02;3.28;;;12.60;99.90;;;;;;4969150;28;20105;-67
2023/10/22 11:07:57;;;;;;;5.75;2.20;;;12.60;99.90;;;;;;4983852;28;20042;-65
2023/10/22 11:10:23;;;;;;;8.57;3.95;;;12.50;99.90;;;;;;4974680;28;20049;-68
2023/10/22 11:12:51;;;;;;;21.48;9.23;;;12.50;99.90;;;;;;4970178;28;20054;-66
2023/10/22 11:15:17;;;;;;;6.90;2.80;;;12.50;99.90;;;;;;4971735;28;20118;-67
2023/10/22 11:17:43;;;;;;;4.68;1.52;;;12.50;99.90;;;;;;4962714;28;20141;-66
2023/10/22 11:20:09;;;;;;;5.88;1.55;;;12.40;99.90;;;;;;4972767;28;20057;-65
2023/10/22 11:22:36;;;;;;;2.72;1.33;;;12.50;99.90;;;;;;4972083;28;20532;-66
2023/10/22 11:25:07;;;;;;;19.98;6.20;;;12.50;99.90;;;;;;4970852;28;20057;-67
2023/10/22 11:27:36;;;;;;;12.90;4.75;;;12.50;99.90;;;;;;4993347;28;20034;-65
2023/10/22 11:30:03;;;;;;;8.10;2.85;;;12.40;99.90;;;;;;4977627;28;20409;-67
2023/10/22 11:32:29;;;;;;;3.85;1.52;;;12.40;99.90;;;;;;4986411;28;20423;-66
2023/10/22 11:35:04;;;;;;;5.15;1.70;;;12.50;99.90;;;;;;4970932;28;20209;-67
2023/10/22 11:37:36;;;;;;;7.43;1.80;;;12.50;99.90;;;;;;4973401;28;20087;-67
2023/10/22 11:40:21;;;;;;;3.65;1.65;;;12.50;99.90;;;;;;4986967;28;20050;-66
2023/10/22 11:42:47;;;;;;;3.05;1.63;;;12.60;99.90;;;;;;4988497;28;20129;-66
2023/10/22 11:45:13;;;;;;;2.70;1.27;;;12.80;99.90;;;;;;4972636;28;20133;-67
2023/10/22 11:47:39;;;;;;;4.00;1.30;;;13.00;99.90;;;;;;4947126;28;20042;-69
2023/10/22 11:50:05;;;;;;;2.47;1.10;;;13.10;99.90;;;;;;4972374;28;20077;-67
2023/10/22 11:52:46;;;;;;;2.90;1.30;;;13.10;99.90;;;;;;4972236;28;20092;-68
2023/10/22 11:55:11;;;;;;;3.63;1.30;;;13.00;99.90;;;;;;4969649;28;20046;-67
2023/10/22 11:57:38;;;;;;;3.35;1.40;;;13.00;99.90;;;;;;4974150;28;20049;-68
2023/10/22 12:00:11;;;;;;;3.28;1.40;;;12.90;99.90;;;;;;4974364;28;20050;-66
2023/10/22 12:02:38;;;;;;;4.30;1.65;;;12.80;99.90;;;;;;4984133;28;20490;-67
2023/10/22 12:05:05;;;;;;;2.83;1.40;;;12.80;99.90;;;;;;4962107;28;20042;-68
2023/10/22 12:07:31;;;;;;;2.83;1.20;;;12.70;99.90;;;;;;4958456;28;20038;-67
2023/10/22 12:09:57;;;;;;;4.00;1.45;;;12.70;99.90;;;;;;4970065;28;20398;-69
2023/10/22 12:12:24;;;;;;;1.77;1.27;;;12.70;99.90;;;;;;4990140;28;20153;-66
2023/10/22 12:14:49;;;;;;;2.33;1.35;;;12.80;99.90;;;;;;4975820;28;20042;-67
2023/10/22 12:17:16;;;;;;;2.10;1.17;;;13.00;99.90;;;;;;4980154;28;20991;-67
2023/10/22 12:19:42;;;;;;;2.90;1.20;;;13.10;99.90;;;;;;4978501;28;20474;-67
2023/10/22 12:22:07;;;;;;;1.95;0.85;;;13.20;99.90;;;;;;4975146;28;20042;-67
2023/10/22 12:24:33;;;;;;;3.42;1.05;;;13.20;99.90;;;;;;4979113;28;20104;-67
2023/10/22 12:26:59;;;;;;;2.35;0.85;;;13.30;99.90;;;;;;4973975;28;20046;-66
2023/10/22 12:29:25;;;;;;;5.43;1.10;;;13.30;99.90;;;;;;4988552;28;20126;-67
2023/10/22 12:31:51;;;;;;;1.42;0.90;;;13.30;99.90;;;;;;4969688;28;20069;-67
2023/10/22 12:34:16;;;;;;;2.35;0.90;;;13.20;99.90;;;;;;4966797;28;20051;-66
2023/10/22 12:36:42;;;;;;;1.80;1.00;;;13.20;99.90;;;;;;4975656;28;20423;-67
2023/10/22 12:39:08;;;;;;;2.97;1.20;;;13.30;99.90;;;;;;4977322;28;20048;-67
2023/10/22 12:41:37;;;;;;;4.65;1.02;;;13.40;99.90;;;;;;4973867;28;20052;-67
2023/10/22 12:44:03;;;;;;;4.75;1.20;;;13.50;99.90;;;;;;4983834;28;20042;-66